sensor_id;sensor_type;location;lat;lon;timestamp;P1;durP1;ratioP1;P2;durP2;ratioP2
17648;SDS011;8943;51.110;-4.158;2023-01-28T00:00:54;12.50;;;4.30;;
17648;SDS011;8943;51.110;-4.158;2023-01-28T00:03:22;7.53;;;4.20;;
17648;SDS011;8943;51.110;-4.158;2023-01-28T00:06:00;7.57;;;4.07;;
17648;SDS011;8943;51.110;-4.158;2023-01-28T00:08:29;6.93;;;3.73;;
17648;SDS011;8943;51.110;-4.158;2023-01-28T00:10:57;7.00;;;3.90;;
17648;SDS011;8943;51.110;-4.158;2023-01-28T00:13:26;7.00;;;4.00;;
17648;SDS011;8943;51.110;-4.158;2023-01-28T00:15:56;6.93;;;3.80;;
17648;SDS011;8943;51.110;-4.158;2023-01-28T00:18:25;8.83;;;4.90;;
17648;SDS011;8943;51.110;-4.158;2023-01-28T00:20:57;9.80;;;6.23;;
17648;SDS011;8943;51.110;-4.158;2023-01-28T00:23:25;8.83;;;5.83;;
17648;SDS011;8943;51.110;-4.158;2023-01-28T00:25:56;8.73;;;5.97;;
17648;SDS011;8943;51.110;-4.158;2023-01-28T00:28:25;8.20;;;5.40;;
17648;SDS011;8943;51.110;-4.158;2023-01-28T00:30:53;6.53;;;3.30;;
17648;SDS011;8943;51.110;-4.158;2023-01-28T00:33:23;5.57;;;3.83;;
17648;SDS011;8943;51.110;-4.158;2023-01-28T00:35:57;5.97;;;3.73;;
17648;SDS011;8943;51.110;-4.158;2023-01-28T00:38:26;6.83;;;4.40;;
17648;SDS011;8943;51.110;-4.158;2023-01-28T00:40:55;6.33;;;4.60;;
17648;SDS011;8943;51.110;-4.158;2023-01-28T00:43:33;6.00;;;3.87;;
17648;SDS011;8943;51.110;-4.158;2023-01-28T00:46:03;10.97;;;4.23;;
17648;SDS011;8943;51.110;-4.158;2023-01-28T00:48:35;5.27;;;3.97;;
17648;SDS011;8943;51.110;-4.158;2023-01-28T00:51:06;5.70;;;3.77;;
17648;SDS011;8943;51.110;-4.158;2023-01-28T00:53:36;6.47;;;3.53;;
17648;SDS011;8943;51.110;-4.158;2023-01-28T00:56:05;8.03;;;3.43;;
17648;SDS011;8943;51.110;-4.158;2023-01-28T00:58:35;7.60;;;3.50;;
17648;SDS011;8943;51.110;-4.158;2023-01-28T01:01:08;8.00;;;3.70;;
17648;SDS011;8943;51.110;-4.158;2023-01-28T01:03:37;8.07;;;4.77;;
17648;SDS011;8943;51.110;-4.158;2023-01-28T01:06:07;8.00;;;4.53;;
17648;SDS011;8943;51.110;-4.158;2023-01-28T01:08:37;7.00;;;4.97;;
17648;SDS011;8943;51.110;-4.158;2023-01-28T01:11:08;8.23;;;4.70;;
17648;SDS011;8943;51.110;-4.158;2023-01-28T01:13:38;7.87;;;4.00;;
17648;SDS011;8943;51.110;-4.158;2023-01-28T01:16:08;7.83;;;4.40;;
17648;SDS011;8943;51.110;-4.158;2023-01-28T01:18:38;7.57;;;4.10;;
17648;SDS011;8943;51.110;-4.158;2023-01-28T01:21:07;8.53;;;4.30;;
17648;SDS011;8943;51.110;-4.158;2023-01-28T01:23:36;4.70;;;3.63;;
17648;SDS011;8943;51.110;-4.158;2023-01-28T01:26:05;6.10;;;4.00;;
17648;SDS011;8943;51.110;-4.158;2023-01-28T01:28:33;6.23;;;3.50;;
17648;SDS011;8943;51.110;-4.158;2023-01-28T01:31:02;4.53;;;3.30;;
17648;SDS011;8943;51.110;-4.158;2023-01-28T01:33:34;4.70;;;3.43;;
17648;SDS011;8943;51.110;-4.158;2023-01-28T01:36:02;8.40;;;4.10;;
17648;SDS011;8943;51.110;-4.158;2023-01-28T01:38:31;6.83;;;3.50;;
17648;SDS011;8943;51.110;-4.158;2023-01-28T01:40:59;6.47;;;3.87;;
17648;SDS011;8943;51.110;-4.158;2023-01-28T01:43:44;6.67;;;4.30;;
17648;SDS011;8943;51.110;-4.158;2023-01-28T01:46:16;6.90;;;4.67;;
17648;SDS011;8943;51.110;-4.158;2023-01-28T01:48:50;9.67;;;4.50;;
17648;SDS011;8943;51.110;-4.158;2023-01-28T01:51:21;6.50;;;4.27;;
17648;SDS011;8943;51.110;-4.158;2023-01-28T01:53:52;9.17;;;4.00;;
17648;SDS011;8943;51.110;-4.158;2023-01-28T01:56:23;7.13;;;4.37;;
17648;SDS011;8943;51.110;-4.158;2023-01-28T01:58:56;8.33;;;3.80;;
17648;SDS011;8943;51.110;-4.158;2023-01-28T02:01:28;6.90;;;4.40;;
17648;SDS011;8943;51.110;-4.158;2023-01-28T02:04:02;5.60;;;3.60;;
17648;SDS011;8943;51.110;-4.158;2023-01-28T02:06:35;4.60;;;3.60;;
17648;SDS011;8943;51.110;-4.158;2023-01-28T02:09:06;4.50;;;3.53;;
17648;SDS011;8943;51.110;-4.158;2023-01-28T02:11:48;6.20;;;3.90;;
17648;SDS011;8943;51.110;-4.158;2023-01-28T02:14:17;7.43;;;4.43;;
17648;SDS011;8943;51.110;-4.158;2023-01-28T02:16:56;9.13;;;4.70;;
17648;SDS011;8943;51.110;-4.158;2023-01-28T02:19:31;8.33;;;4.67;;
17648;SDS011;8943;51.110;-4.158;2023-01-28T02:22:05;6.03;;;4.13;;
17648;SDS011;8943;51.110;-4.158;2023-01-28T02:28:17;8.87;;;4.50;;
17648;SDS011;8943;51.110;-4.158;2023-01-28T02:30:55;5.50;;;4.30;;
17648;SDS011;8943;51.110;-4.158;2023-01-28T02:33:28;7.00;;;4.27;;
17648;SDS011;8943;51.110;-4.158;2023-01-28T02:36:03;5.70;;;4.37;;
17648;SDS011;8943;51.110;-4.158;2023-01-28T02:38:40;8.13;;;4.73;;
17648;SDS011;8943;51.110;-4.158;2023-01-28T02:41:13;5.40;;;4.10;;
17648;SDS011;8943;51.110;-4.158;2023-01-28T02:43:52;8.67;;;4.67;;
17648;SDS011;8943;51.110;-4.158;2023-01-28T02:46:21;7.10;;;4.47;;
17648;SDS011;8943;51.110;-4.158;2023-01-28T02:49:18;6.77;;;4.57;;
17648;SDS011;8943;51.110;-4.158;2023-01-28T02:51:57;10.83;;;4.57;;
17648;SDS011;8943;51.110;-4.158;2023-01-28T02:54:38;7.70;;;4.50;;
17648;SDS011;8943;51.110;-4.158;2023-01-28T02:57:15;8.27;;;4.20;;
17648;SDS011;8943;51.110;-4.158;2023-01-28T02:59:56;8.90;;;4.57;;
17648;SDS011;8943;51.110;-4.158;2023-01-28T03:02:35;5.87;;;4.07;;
17648;SDS011;8943;51.110;-4.158;2023-01-28T03:05:10;6.17;;;3.90;;
17648;SDS011;8943;51.110;-4.158;2023-01-28T03:07:46;6.23;;;4.63;;
17648;SDS011;8943;51.110;-4.158;2023-01-28T03:10:16;10.00;;;4.43;;
17648;SDS011;8943;51.110;-4.158;2023-01-28T03:12:46;5.47;;;4.20;;
17648;SDS011;8943;51.110;-4.158;2023-01-28T03:15:36;7.03;;;4.40;;
17648;SDS011;8943;51.110;-4.158;2023-01-28T03:18:26;8.23;;;4.47;;
17648;SDS011;8943;51.110;-4.158;2023-01-28T03:21:18;8.60;;;3.90;;
17648;SDS011;8943;51.110;-4.158;2023-01-28T03:24:07;6.57;;;4.10;;
17648;SDS011;8943;51.110;-4.158;2023-01-28T03:26:57;8.13;;;4.20;;
17648;SDS011;8943;51.110;-4.158;2023-01-28T03:29:49;7.53;;;4.50;;
17648;SDS011;8943;51.110;-4.158;2023-01-28T03:32:38;4.97;;;4.23;;
17648;SDS011;8943;51.110;-4.158;2023-01-28T03:35:27;7.33;;;4.23;;
17648;SDS011;8943;51.110;-4.158;2023-01-28T03:38:16;5.57;;;4.00;;
17648;SDS011;8943;51.110;-4.158;2023-01-28T03:40:49;8.30;;;4.43;;
17648;SDS011;8943;51.110;-4.158;2023-01-28T03:43:18;8.80;;;4.57;;
17648;SDS011;8943;51.110;-4.158;2023-01-28T03:45:47;7.97;;;4.23;;
17648;SDS011;8943;51.110;-4.158;2023-01-28T03:48:18;8.90;;;4.37;;
17648;SDS011;8943;51.110;-4.158;2023-01-28T03:50:47;7.43;;;4.83;;
17648;SDS011;8943;51.110;-4.158;2023-01-28T03:53:17;7.13;;;4.93;;
17648;SDS011;8943;51.110;-4.158;2023-01-28T03:55:46;7.20;;;4.77;;
17648;SDS011;8943;51.110;-4.158;2023-01-28T03:58:15;7.57;;;5.33;;
17648;SDS011;8943;51.110;-4.158;2023-01-28T04:00:45;6.20;;;5.10;;
17648;SDS011;8943;51.110;-4.158;2023-01-28T04:03:14;8.10;;;5.57;;
17648;SDS011;8943;51.110;-4.158;2023-01-28T04:05:46;7.80;;;4.80;;
17648;SDS011;8943;51.110;-4.158;2023-01-28T04:08:26;8.83;;;4.67;;
17648;SDS011;8943;51.110;-4.158;2023-01-28T04:10:54;7.27;;;4.63;;
17648;SDS011;8943;51.110;-4.158;2023-01-28T04:13:22;7.10;;;4.93;;
17648;SDS011;8943;51.110;-4.158;2023-01-28T04:15:52;7.17;;;5.10;;
17648;SDS011;8943;51.110;-4.158;2023-01-28T04:18:20;6.17;;;4.60;;
17648;SDS011;8943;51.110;-4.158;2023-01-28T04:20:54;11.53;;;4.93;;
17648;SDS011;8943;51.110;-4.158;2023-01-28T04:23:22;8.03;;;4.90;;
17648;SDS011;8943;51.110;-4.158;2023-01-28T04:25:55;7.77;;;4.90;;
17648;SDS011;8943;51.110;-4.158;2023-01-28T04:28:23;7.20;;;4.97;;
17648;SDS011;8943;51.110;-4.158;2023-01-28T04:30:51;8.03;;;5.37;;
17648;SDS011;8943;51.110;-4.158;2023-01-28T04:33:20;6.27;;;5.00;;
17648;SDS011;8943;51.110;-4.158;2023-01-28T04:35:48;6.17;;;4.37;;
17648;SDS011;8943;51.110;-4.158;2023-01-28T04:38:18;5.10;;;4.07;;
17648;SDS011;8943;51.110;-4.158;2023-01-28T04:40:48;7.83;;;4.03;;
17648;SDS011;8943;51.110;-4.158;2023-01-28T04:43:16;5.40;;;3.70;;
17648;SDS011;8943;51.110;-4.158;2023-01-28T04:45:45;4.53;;;4.00;;
17648;SDS011;8943;51.110;-4.158;2023-01-28T04:48:13;6.73;;;4.70;;
17648;SDS011;8943;51.110;-4.158;2023-01-28T04:50:42;5.97;;;4.20;;
17648;SDS011;8943;51.110;-4.158;2023-01-28T04:53:13;5.07;;;4.10;;
17648;SDS011;8943;51.110;-4.158;2023-01-28T04:55:48;5.60;;;3.83;;
17648;SDS011;8943;51.110;-4.158;2023-01-28T04:58:17;5.37;;;3.40;;
17648;SDS011;8943;51.110;-4.158;2023-01-28T05:00:45;4.77;;;3.30;;
17648;SDS011;8943;51.110;-4.158;2023-01-28T05:03:13;5.03;;;3.63;;
17648;SDS011;8943;51.110;-4.158;2023-01-28T05:05:41;4.07;;;3.57;;
17648;SDS011;8943;51.110;-4.158;2023-01-28T05:08:10;7.67;;;3.70;;
17648;SDS011;8943;51.110;-4.158;2023-01-28T05:10:38;4.73;;;3.50;;
17648;SDS011;8943;51.110;-4.158;2023-01-28T05:13:08;5.83;;;3.53;;
17648;SDS011;8943;51.110;-4.158;2023-01-28T05:15:36;4.37;;;3.40;;
17648;SDS011;8943;51.110;-4.158;2023-01-28T05:18:04;5.67;;;3.73;;
17648;SDS011;8943;51.110;-4.158;2023-01-28T05:20:32;3.73;;;3.37;;
17648;SDS011;8943;51.110;-4.158;2023-01-28T05:23:01;3.93;;;3.13;;
17648;SDS011;8943;51.110;-4.158;2023-01-28T05:25:29;4.00;;;3.27;;
17648;SDS011;8943;51.110;-4.158;2023-01-28T05:27:57;4.47;;;3.30;;
17648;SDS011;8943;51.110;-4.158;2023-01-28T05:30:27;3.40;;;3.10;;
17648;SDS011;8943;51.110;-4.158;2023-01-28T05:32:55;3.53;;;3.03;;
17648;SDS011;8943;51.110;-4.158;2023-01-28T05:35:24;3.77;;;3.20;;
17648;SDS011;8943;51.110;-4.158;2023-01-28T05:37:52;5.40;;;3.30;;
17648;SDS011;8943;51.110;-4.158;2023-01-28T05:40:20;4.83;;;3.57;;
17648;SDS011;8943;51.110;-4.158;2023-01-28T05:42:48;5.93;;;3.33;;
17648;SDS011;8943;51.110;-4.158;2023-01-28T05:45:16;4.70;;;3.73;;
17648;SDS011;8943;51.110;-4.158;2023-01-28T05:47:45;3.77;;;3.17;;
17648;SDS011;8943;51.110;-4.158;2023-01-28T05:50:14;4.23;;;3.30;;
17648;SDS011;8943;51.110;-4.158;2023-01-28T05:52:43;4.03;;;3.30;;
17648;SDS011;8943;51.110;-4.158;2023-01-28T05:55:13;4.53;;;3.43;;
17648;SDS011;8943;51.110;-4.158;2023-01-28T05:57:41;4.13;;;2.97;;
17648;SDS011;8943;51.110;-4.158;2023-01-28T06:00:10;4.43;;;3.67;;
17648;SDS011;8943;51.110;-4.158;2023-01-28T06:02:39;4.13;;;2.90;;
17648;SDS011;8943;51.110;-4.158;2023-01-28T06:05:12;5.77;;;3.17;;
17648;SDS011;8943;51.110;-4.158;2023-01-28T06:07:45;3.60;;;3.00;;
17648;SDS011;8943;51.110;-4.158;2023-01-28T06:10:17;5.23;;;3.50;;
17648;SDS011;8943;51.110;-4.158;2023-01-28T06:12:47;5.70;;;3.20;;
17648;SDS011;8943;51.110;-4.158;2023-01-28T06:15:16;6.23;;;3.30;;
17648;SDS011;8943;51.110;-4.158;2023-01-28T06:17:44;4.93;;;2.87;;
17648;SDS011;8943;51.110;-4.158;2023-01-28T06:20:16;5.57;;;3.73;;
17648;SDS011;8943;51.110;-4.158;2023-01-28T06:22:45;4.40;;;3.50;;
17648;SDS011;8943;51.110;-4.158;2023-01-28T06:25:19;5.20;;;3.13;;
17648;SDS011;8943;51.110;-4.158;2023-01-28T06:27:53;7.13;;;3.37;;
17648;SDS011;8943;51.110;-4.158;2023-01-28T06:30:24;4.90;;;3.70;;
17648;SDS011;8943;51.110;-4.158;2023-01-28T06:32:55;5.00;;;3.40;;
17648;SDS011;8943;51.110;-4.158;2023-01-28T06:35:25;4.83;;;3.17;;
17648;SDS011;8943;51.110;-4.158;2023-01-28T06:37:54;5.07;;;3.80;;
17648;SDS011;8943;51.110;-4.158;2023-01-28T06:40:27;6.67;;;4.90;;
17648;SDS011;8943;51.110;-4.158;2023-01-28T06:42:55;10.63;;;7.40;;
17648;SDS011;8943;51.110;-4.158;2023-01-28T06:45:23;8.40;;;4.23;;
17648;SDS011;8943;51.110;-4.158;2023-01-28T06:47:52;4.23;;;3.30;;
17648;SDS011;8943;51.110;-4.158;2023-01-28T06:50:20;5.37;;;3.10;;
17648;SDS011;8943;51.110;-4.158;2023-01-28T06:52:50;6.07;;;4.73;;
17648;SDS011;8943;51.110;-4.158;2023-01-28T06:55:18;4.97;;;4.43;;
17648;SDS011;8943;51.110;-4.158;2023-01-28T06:57:46;7.27;;;5.10;;
17648;SDS011;8943;51.110;-4.158;2023-01-28T07:00:16;7.30;;;5.20;;
17648;SDS011;8943;51.110;-4.158;2023-01-28T07:02:45;9.70;;;5.17;;
17648;SDS011;8943;51.110;-4.158;2023-01-28T07:05:14;5.17;;;3.63;;
17648;SDS011;8943;51.110;-4.158;2023-01-28T07:07:42;5.27;;;3.93;;
17648;SDS011;8943;51.110;-4.158;2023-01-28T07:10:13;4.73;;;3.73;;
17648;SDS011;8943;51.110;-4.158;2023-01-28T07:12:43;7.03;;;5.27;;
17648;SDS011;8943;51.110;-4.158;2023-01-28T07:15:14;9.67;;;6.37;;
17648;SDS011;8943;51.110;-4.158;2023-01-28T07:17:42;9.13;;;6.80;;
17648;SDS011;8943;51.110;-4.158;2023-01-28T07:20:12;54.13;;;9.67;;
17648;SDS011;8943;51.110;-4.158;2023-01-28T07:22:42;7.00;;;5.00;;
17648;SDS011;8943;51.110;-4.158;2023-01-28T07:25:11;6.20;;;4.00;;
17648;SDS011;8943;51.110;-4.158;2023-01-28T07:27:45;6.53;;;4.40;;
17648;SDS011;8943;51.110;-4.158;2023-01-28T07:30:16;7.77;;;5.20;;
17648;SDS011;8943;51.110;-4.158;2023-01-28T07:32:52;6.20;;;4.20;;
17648;SDS011;8943;51.110;-4.158;2023-01-28T07:35:21;7.03;;;3.97;;
17648;SDS011;8943;51.110;-4.158;2023-01-28T07:37:50;5.27;;;4.30;;
17648;SDS011;8943;51.110;-4.158;2023-01-28T07:40:20;7.70;;;5.27;;
17648;SDS011;8943;51.110;-4.158;2023-01-28T07:42:49;7.57;;;5.57;;
17648;SDS011;8943;51.110;-4.158;2023-01-28T07:45:18;8.80;;;6.83;;
17648;SDS011;8943;51.110;-4.158;2023-01-28T07:47:51;11.13;;;6.83;;
17648;SDS011;8943;51.110;-4.158;2023-01-28T07:50:22;15.70;;;8.57;;
17648;SDS011;8943;51.110;-4.158;2023-01-28T07:52:51;7.83;;;6.30;;
17648;SDS011;8943;51.110;-4.158;2023-01-28T07:55:20;6.80;;;5.33;;
17648;SDS011;8943;51.110;-4.158;2023-01-28T07:57:49;7.90;;;5.30;;
17648;SDS011;8943;51.110;-4.158;2023-01-28T08:00:19;7.43;;;5.00;;
17648;SDS011;8943;51.110;-4.158;2023-01-28T08:02:48;11.10;;;6.27;;
17648;SDS011;8943;51.110;-4.158;2023-01-28T08:05:17;8.63;;;5.97;;
17648;SDS011;8943;51.110;-4.158;2023-01-28T08:07:47;7.50;;;5.60;;
17648;SDS011;8943;51.110;-4.158;2023-01-28T08:10:17;8.23;;;5.60;;
17648;SDS011;8943;51.110;-4.158;2023-01-28T08:12:53;7.47;;;4.80;;
17648;SDS011;8943;51.110;-4.158;2023-01-28T08:15:24;8.90;;;4.90;;
17648;SDS011;8943;51.110;-4.158;2023-01-28T08:17:52;7.13;;;4.90;;
17648;SDS011;8943;51.110;-4.158;2023-01-28T08:20:21;9.20;;;5.40;;
17648;SDS011;8943;51.110;-4.158;2023-01-28T08:22:50;7.07;;;5.03;;
17648;SDS011;8943;51.110;-4.158;2023-01-28T08:25:18;10.57;;;6.20;;
17648;SDS011;8943;51.110;-4.158;2023-01-28T08:27:46;6.67;;;5.23;;
17648;SDS011;8943;51.110;-4.158;2023-01-28T08:30:16;11.03;;;6.00;;
17648;SDS011;8943;51.110;-4.158;2023-01-28T08:32:44;9.20;;;5.60;;
17648;SDS011;8943;51.110;-4.158;2023-01-28T08:35:12;7.33;;;4.63;;
17648;SDS011;8943;51.110;-4.158;2023-01-28T08:37:40;7.97;;;5.43;;
17648;SDS011;8943;51.110;-4.158;2023-01-28T08:40:09;9.07;;;6.30;;
17648;SDS011;8943;51.110;-4.158;2023-01-28T08:42:38;8.60;;;5.67;;
17648;SDS011;8943;51.110;-4.158;2023-01-28T08:45:07;9.10;;;6.60;;
17648;SDS011;8943;51.110;-4.158;2023-01-28T08:47:37;10.47;;;7.33;;
17648;SDS011;8943;51.110;-4.158;2023-01-28T08:50:14;10.10;;;6.90;;
17648;SDS011;8943;51.110;-4.158;2023-01-28T08:52:43;11.33;;;6.67;;
17648;SDS011;8943;51.110;-4.158;2023-01-28T08:55:11;10.80;;;7.40;;
17648;SDS011;8943;51.110;-4.158;2023-01-28T08:57:40;12.60;;;6.20;;
17648;SDS011;8943;51.110;-4.158;2023-01-28T09:00:09;10.57;;;7.97;;
17648;SDS011;8943;51.110;-4.158;2023-01-28T09:02:40;11.70;;;8.37;;
17648;SDS011;8943;51.110;-4.158;2023-01-28T09:05:08;15.57;;;9.73;;
17648;SDS011;8943;51.110;-4.158;2023-01-28T09:07:36;9.63;;;6.70;;
17648;SDS011;8943;51.110;-4.158;2023-01-28T09:10:06;9.20;;;6.27;;
17648;SDS011;8943;51.110;-4.158;2023-01-28T09:12:35;11.03;;;7.23;;
17648;SDS011;8943;51.110;-4.158;2023-01-28T09:15:06;10.60;;;6.83;;
17648;SDS011;8943;51.110;-4.158;2023-01-28T09:17:40;8.10;;;5.50;;
17648;SDS011;8943;51.110;-4.158;2023-01-28T09:20:11;7.57;;;5.90;;
17648;SDS011;8943;51.110;-4.158;2023-01-28T09:22:40;8.23;;;6.67;;
17648;SDS011;8943;51.110;-4.158;2023-01-28T09:25:08;8.47;;;6.10;;
17648;SDS011;8943;51.110;-4.158;2023-01-28T09:27:40;11.17;;;7.63;;
17648;SDS011;8943;51.110;-4.158;2023-01-28T09:30:12;10.37;;;6.57;;
17648;SDS011;8943;51.110;-4.158;2023-01-28T09:32:49;12.37;;;8.97;;
17648;SDS011;8943;51.110;-4.158;2023-01-28T09:35:21;13.87;;;9.33;;
17648;SDS011;8943;51.110;-4.158;2023-01-28T09:37:56;13.97;;;9.83;;
17648;SDS011;8943;51.110;-4.158;2023-01-28T09:40:33;10.83;;;7.73;;
17648;SDS011;8943;51.110;-4.158;2023-01-28T09:43:34;8.40;;;6.13;;
17648;SDS011;8943;51.110;-4.158;2023-01-28T09:46:15;9.90;;;6.23;;
17648;SDS011;8943;51.110;-4.158;2023-01-28T09:48:51;8.37;;;5.93;;
17648;SDS011;8943;51.110;-4.158;2023-01-28T09:51:26;10.00;;;6.30;;
17648;SDS011;8943;51.110;-4.158;2023-01-28T09:54:00;8.80;;;6.37;;
17648;SDS011;8943;51.110;-4.158;2023-01-28T09:56:38;12.67;;;6.63;;
17648;SDS011;8943;51.110;-4.158;2023-01-28T09:59:25;8.07;;;6.40;;
17648;SDS011;8943;51.110;-4.158;2023-01-28T10:01:59;9.33;;;6.37;;
17648;SDS011;8943;51.110;-4.158;2023-01-28T10:05:02;12.83;;;7.37;;
17648;SDS011;8943;51.110;-4.158;2023-01-28T10:07:57;16.67;;;7.87;;
17648;SDS011;8943;51.110;-4.158;2023-01-28T10:10:56;11.00;;;7.63;;
17648;SDS011;8943;51.110;-4.158;2023-01-28T10:13:36;14.43;;;7.13;;
17648;SDS011;8943;51.110;-4.158;2023-01-28T10:16:22;14.27;;;9.43;;
17648;SDS011;8943;51.110;-4.158;2023-01-28T10:18:57;9.87;;;8.23;;
17648;SDS011;8943;51.110;-4.158;2023-01-28T10:21:35;12.63;;;7.83;;
17648;SDS011;8943;51.110;-4.158;2023-01-28T10:24:12;10.73;;;7.30;;
17648;SDS011;8943;51.110;-4.158;2023-01-28T10:26:51;10.83;;;7.77;;
17648;SDS011;8943;51.110;-4.158;2023-01-28T10:29:26;9.33;;;7.63;;
17648;SDS011;8943;51.110;-4.158;2023-01-28T10:31:58;9.63;;;7.47;;
17648;SDS011;8943;51.110;-4.158;2023-01-28T10:34:35;11.30;;;7.67;;
17648;SDS011;8943;51.110;-4.158;2023-01-28T10:37:10;10.67;;;7.70;;
17648;SDS011;8943;51.110;-4.158;2023-01-28T10:39:41;10.73;;;8.07;;
17648;SDS011;8943;51.110;-4.158;2023-01-28T10:42:21;11.37;;;7.97;;
17648;SDS011;8943;51.110;-4.158;2023-01-28T10:45:06;12.50;;;8.03;;
17648;SDS011;8943;51.110;-4.158;2023-01-28T10:47:47;8.73;;;6.70;;
17648;SDS011;8943;51.110;-4.158;2023-01-28T10:50:26;10.40;;;6.93;;
17648;SDS011;8943;51.110;-4.158;2023-01-28T10:52:58;10.10;;;7.53;;
17648;SDS011;8943;51.110;-4.158;2023-01-28T10:55:29;9.40;;;7.10;;
17648;SDS011;8943;51.110;-4.158;2023-01-28T10:58:01;10.00;;;7.43;;
17648;SDS011;8943;51.110;-4.158;2023-01-28T11:00:34;12.97;;;6.87;;
17648;SDS011;8943;51.110;-4.158;2023-01-28T11:03:04;8.57;;;6.80;;
17648;SDS011;8943;51.110;-4.158;2023-01-28T11:05:48;9.63;;;6.00;;
17648;SDS011;8943;51.110;-4.158;2023-01-28T11:08:20;11.10;;;7.20;;
17648;SDS011;8943;51.110;-4.158;2023-01-28T11:10:50;8.97;;;6.90;;
17648;SDS011;8943;51.110;-4.158;2023-01-28T11:13:21;10.27;;;6.53;;
17648;SDS011;8943;51.110;-4.158;2023-01-28T11:15:53;9.70;;;6.47;;
17648;SDS011;8943;51.110;-4.158;2023-01-28T11:18:28;8.80;;;6.37;;
17648;SDS011;8943;51.110;-4.158;2023-01-28T11:21:03;9.70;;;6.17;;
17648;SDS011;8943;51.110;-4.158;2023-01-28T11:23:35;7.77;;;5.90;;
17648;SDS011;8943;51.110;-4.158;2023-01-28T11:26:13;8.77;;;6.37;;
17648;SDS011;8943;51.110;-4.158;2023-01-28T11:28:44;7.60;;;6.00;;
17648;SDS011;8943;51.110;-4.158;2023-01-28T11:31:17;9.00;;;6.47;;
17648;SDS011;8943;51.110;-4.158;2023-01-28T11:33:50;10.23;;;7.07;;
17648;SDS011;8943;51.110;-4.158;2023-01-28T11:36:23;9.20;;;6.90;;
17648;SDS011;8943;51.110;-4.158;2023-01-28T11:39:17;10.07;;;6.87;;
17648;SDS011;8943;51.110;-4.158;2023-01-28T11:41:49;7.37;;;6.40;;
17648;SDS011;8943;51.110;-4.158;2023-01-28T11:44:19;9.00;;;6.30;;
17648;SDS011;8943;51.110;-4.158;2023-01-28T11:46:53;11.43;;;6.50;;
17648;SDS011;8943;51.110;-4.158;2023-01-28T11:49:35;10.77;;;7.00;;
17648;SDS011;8943;51.110;-4.158;2023-01-28T11:52:16;10.97;;;6.23;;
17648;SDS011;8943;51.110;-4.158;2023-01-28T11:55:16;9.70;;;6.30;;
17648;SDS011;8943;51.110;-4.158;2023-01-28T11:57:57;8.47;;;6.33;;
17648;SDS011;8943;51.110;-4.158;2023-01-28T12:00:36;10.57;;;6.73;;
17648;SDS011;8943;51.110;-4.158;2023-01-28T12:03:18;8.43;;;6.00;;
17648;SDS011;8943;51.110;-4.158;2023-01-28T12:06:15;9.07;;;6.80;;
17648;SDS011;8943;51.110;-4.158;2023-01-28T12:09:12;8.67;;;6.30;;
17648;SDS011;8943;51.110;-4.158;2023-01-28T12:11:56;8.80;;;6.43;;
17648;SDS011;8943;51.110;-4.158;2023-01-28T12:14:47;9.40;;;6.17;;
17648;SDS011;8943;51.110;-4.158;2023-01-28T12:17:29;9.13;;;5.43;;
17648;SDS011;8943;51.110;-4.158;2023-01-28T12:20:08;11.57;;;6.13;;
17648;SDS011;8943;51.110;-4.158;2023-01-28T12:25:38;7.63;;;5.60;;
17648;SDS011;8943;51.110;-4.158;2023-01-28T12:28:25;14.87;;;6.83;;
17648;SDS011;8943;51.110;-4.158;2023-01-28T12:31:12;10.47;;;6.53;;
17648;SDS011;8943;51.110;-4.158;2023-01-28T12:34:01;8.83;;;5.83;;
17648;SDS011;8943;51.110;-4.158;2023-01-28T12:36:47;8.07;;;5.70;;
17648;SDS011;8943;51.110;-4.158;2023-01-28T12:39:26;6.87;;;5.57;;
17648;SDS011;8943;51.110;-4.158;2023-01-28T12:42:03;9.33;;;6.30;;
17648;SDS011;8943;51.110;-4.158;2023-01-28T12:44:39;9.40;;;6.27;;
17648;SDS011;8943;51.110;-4.158;2023-01-28T12:47:13;8.50;;;5.70;;
17648;SDS011;8943;51.110;-4.158;2023-01-28T12:49:45;8.23;;;6.13;;
17648;SDS011;8943;51.110;-4.158;2023-01-28T12:52:18;10.77;;;6.43;;
17648;SDS011;8943;51.110;-4.158;2023-01-28T12:54:53;8.27;;;6.10;;
17648;SDS011;8943;51.110;-4.158;2023-01-28T12:57:26;6.83;;;6.07;;
17648;SDS011;8943;51.110;-4.158;2023-01-28T13:00:02;9.00;;;6.83;;
17648;SDS011;8943;51.110;-4.158;2023-01-28T13:02:44;11.73;;;7.07;;
17648;SDS011;8943;51.110;-4.158;2023-01-28T13:05:19;7.93;;;6.37;;
17648;SDS011;8943;51.110;-4.158;2023-01-28T13:07:51;8.37;;;6.40;;
17648;SDS011;8943;51.110;-4.158;2023-01-28T13:10:24;8.90;;;5.80;;
17648;SDS011;8943;51.110;-4.158;2023-01-28T13:12:55;8.97;;;6.30;;
17648;SDS011;8943;51.110;-4.158;2023-01-28T13:15:27;11.07;;;6.90;;
17648;SDS011;8943;51.110;-4.158;2023-01-28T13:17:56;8.10;;;5.73;;
17648;SDS011;8943;51.110;-4.158;2023-01-28T13:20:30;8.00;;;6.00;;
17648;SDS011;8943;51.110;-4.158;2023-01-28T13:23:04;8.93;;;6.27;;
17648;SDS011;8943;51.110;-4.158;2023-01-28T13:25:33;14.60;;;6.97;;
17648;SDS011;8943;51.110;-4.158;2023-01-28T13:28:02;8.80;;;6.20;;
17648;SDS011;8943;51.110;-4.158;2023-01-28T13:30:34;8.30;;;5.33;;
17648;SDS011;8943;51.110;-4.158;2023-01-28T13:36:00;11.70;;;7.87;;
17648;SDS011;8943;51.110;-4.158;2023-01-28T13:38:32;18.13;;;6.10;;
17648;SDS011;8943;51.110;-4.158;2023-01-28T13:41:00;11.47;;;6.30;;
17648;SDS011;8943;51.110;-4.158;2023-01-28T13:43:35;9.03;;;6.17;;
17648;SDS011;8943;51.110;-4.158;2023-01-28T13:46:08;9.43;;;6.00;;
17648;SDS011;8943;51.110;-4.158;2023-01-28T13:48:39;8.93;;;6.67;;
17648;SDS011;8943;51.110;-4.158;2023-01-28T13:51:15;12.30;;;7.10;;
17648;SDS011;8943;51.110;-4.158;2023-01-28T13:53:47;10.40;;;7.20;;
17648;SDS011;8943;51.110;-4.158;2023-01-28T13:56:24;9.57;;;7.03;;
17648;SDS011;8943;51.110;-4.158;2023-01-28T13:59:07;9.73;;;6.80;;
17648;SDS011;8943;51.110;-4.158;2023-01-28T14:01:58;7.77;;;6.20;;
17648;SDS011;8943;51.110;-4.158;2023-01-28T14:11:01;10.97;;;6.37;;
17648;SDS011;8943;51.110;-4.158;2023-01-28T14:13:51;9.20;;;6.50;;
17648;SDS011;8943;51.110;-4.158;2023-01-28T14:16:51;9.53;;;6.97;;
17648;SDS011;8943;51.110;-4.158;2023-01-28T14:19:26;9.07;;;6.63;;
17648;SDS011;8943;51.110;-4.158;2023-01-28T14:21:58;10.53;;;7.67;;
17648;SDS011;8943;51.110;-4.158;2023-01-28T14:24:32;11.50;;;8.47;;
17648;SDS011;8943;51.110;-4.158;2023-01-28T14:27:01;15.27;;;8.37;;
17648;SDS011;8943;51.110;-4.158;2023-01-28T14:29:41;11.73;;;9.03;;
17648;SDS011;8943;51.110;-4.158;2023-01-28T14:32:16;13.67;;;9.03;;
17648;SDS011;8943;51.110;-4.158;2023-01-28T14:34:49;15.70;;;9.30;;
17648;SDS011;8943;51.110;-4.158;2023-01-28T14:37:20;16.57;;;9.77;;
17648;SDS011;8943;51.110;-4.158;2023-01-28T14:39:51;13.80;;;8.87;;
17648;SDS011;8943;51.110;-4.158;2023-01-28T14:42:23;12.70;;;9.30;;
17648;SDS011;8943;51.110;-4.158;2023-01-28T14:44:56;17.07;;;9.83;;
17648;SDS011;8943;51.110;-4.158;2023-01-28T14:47:42;13.57;;;8.80;;
17648;SDS011;8943;51.110;-4.158;2023-01-28T14:50:24;13.83;;;9.53;;
17648;SDS011;8943;51.110;-4.158;2023-01-28T14:56:13;12.90;;;9.17;;
17648;SDS011;8943;51.110;-4.158;2023-01-28T14:58:52;15.67;;;10.37;;
17648;SDS011;8943;51.110;-4.158;2023-01-28T15:01:24;14.43;;;10.43;;
17648;SDS011;8943;51.110;-4.158;2023-01-28T15:03:55;14.53;;;11.00;;
17648;SDS011;8943;51.110;-4.158;2023-01-28T15:06:28;12.23;;;9.20;;
17648;SDS011;8943;51.110;-4.158;2023-01-28T15:09:07;11.87;;;7.13;;
17648;SDS011;8943;51.110;-4.158;2023-01-28T15:11:40;13.60;;;8.47;;
17648;SDS011;8943;51.110;-4.158;2023-01-28T15:14:12;12.57;;;7.77;;
17648;SDS011;8943;51.110;-4.158;2023-01-28T15:16:46;14.97;;;7.70;;
17648;SDS011;8943;51.110;-4.158;2023-01-28T15:19:15;11.87;;;9.13;;
17648;SDS011;8943;51.110;-4.158;2023-01-28T15:21:52;42.43;;;28.90;;
17648;SDS011;8943;51.110;-4.158;2023-01-28T15:24:22;22.70;;;15.37;;
17648;SDS011;8943;51.110;-4.158;2023-01-28T15:26:50;14.50;;;10.77;;
17648;SDS011;8943;51.110;-4.158;2023-01-28T15:29:21;13.80;;;8.73;;
17648;SDS011;8943;51.110;-4.158;2023-01-28T15:31:51;21.67;;;13.27;;
17648;SDS011;8943;51.110;-4.158;2023-01-28T15:34:20;36.77;;;18.77;;
17648;SDS011;8943;51.110;-4.158;2023-01-28T15:36:48;22.90;;;12.17;;
17648;SDS011;8943;51.110;-4.158;2023-01-28T15:39:19;12.27;;;8.93;;